WetterOnline ( https://www.wetteronline.de )

Wetter aktuell Morbach

Aktuelles Wetter: Deuselbach (483m)

6-stündlich | Neueste Meldungen
Ortszeit Temperatur Wetter
Sa, 24.07. 8:00 19.8° C bedeckt
Sa, 24.07. 2:00 19.3° C fast wolkenlos
Fr, 23.07. 20:00 22.7° C leicht bewölkt
Fr, 23.07. 14:00 24.1° C leicht bewölkt
Fr, 23.07. 8:00 16.3° C leicht bewölkt
Fr, 23.07. 2:00 14.6° C wolkenlos
Do, 22.07. 20:00 21.9° C wolkenlos
Do, 22.07. 14:00 22.1° C leicht bewölkt
Ortszeit Temperatur Wetter
Sa, 24.07. 10:00 17.6° C leichter Regen
Sa, 24.07. 9:50 17.6° C leichter Regen
Sa, 24.07. 9:40 17.4° C leichter Regen
Sa, 24.07. 9:30 17.9° C leichter Regen
Sa, 24.07. 9:20 17.9° C leichter Regen
Sa, 24.07. 9:10 18.0° C leichter Regen
Sa, 24.07. 9:00 18.1° C leichter Regen
Sa, 24.07. 8:30 19.5° C leichter Regen
Sa, 24.07. 8:00 19.8° C bedeckt
Sa, 24.07. 7:30 20.3° C wolkig
Sa, 24.07. 7:00 18.1° C wolkig
Ortszeit Relative Feuchte Sichtweite
Sa, 24.07. 8:00 65% 35 km
Sa, 24.07. 2:00 60% 40 km
Fr, 23.07. 20:00 48% 40 km
Fr, 23.07. 14:00 44% 50 km
Fr, 23.07. 8:00 77% 40 km
Fr, 23.07. 2:00 81% 40 km
Do, 22.07. 20:00 52% 65 km
Do, 22.07. 14:00 55% 55 km
Ortszeit Relative Feuchte Sichtweite
Sa, 24.07. 10:00 89% 24 km
Sa, 24.07. 9:50 89% -
Sa, 24.07. 9:40 89% -
Sa, 24.07. 9:30 84% 25 km
Sa, 24.07. 9:20 84% -
Sa, 24.07. 9:10 83% -
Sa, 24.07. 9:00 75% 27 km
Sa, 24.07. 8:30 67% 30 km
Sa, 24.07. 8:00 65% 35 km
Sa, 24.07. 7:30 64% 35 km
Sa, 24.07. 7:00 73% 30 km
Ortszeit Niederschlagsmenge Niederschlagsart
Sa, 24.07. 8:00 0.1 l/m2 in 12 Std. Regen
Sa, 24.07. 2:00 0.0 l/m2 in 6 Std. -
Fr, 23.07. 20:00 0.0 l/m2 in 12 Std. -
Fr, 23.07. 14:00 0.0 l/m2 in 6 Std. -
Fr, 23.07. 8:00 0.0 l/m2 in 12 Std. -
Fr, 23.07. 2:00 0.0 l/m2 in 6 Std. -
Do, 22.07. 20:00 0.0 l/m2 in 12 Std. -
Do, 22.07. 14:00 0.0 l/m2 in 6 Std. -
Ortszeit Niederschlagsmenge Niederschlagsart
Sa, 24.07. 10:00 0.1 l/m2 in 1 Std. Regen
Sa, 24.07. 9:50 keine Meldung -
Sa, 24.07. 9:40 keine Meldung -
Sa, 24.07. 9:30 0.1 l/m2 in 1 Std. -
Sa, 24.07. 9:20 keine Meldung -
Sa, 24.07. 9:10 keine Meldung -
Sa, 24.07. 9:00 0.1 l/m2 in 1 Std. Regen
Sa, 24.07. 8:30 0.1 l/m2 in 1 Std. -
Sa, 24.07. 8:00 0.1 l/m2 in 1 Std. Regen
Sa, 24.07. 7:30 0.1 l/m2 in 1 Std. Schneeregen
Sa, 24.07. 7:00 0.1 l/m2 in 1 Std. -
Ortszeit Stärke Spitze Richtung
km/h Bft. km/h Grad Sektor
Sa, 24.07. 8:00 11 2 36 160° S
Sa, 24.07. 2:00 9 2 22 40° NO
Fr, 23.07. 20:00 13 3 24 70° O
Fr, 23.07. 14:00 7 2 22 50° NO
Fr, 23.07. 8:00 0 0 11 - -
Fr, 23.07. 2:00 6 1 13 70° O
Do, 22.07. 20:00 9 2 24 350° N
Do, 22.07. 14:00 11 2 22 280° W
Ortszeit Stärke Spitze Richtung
km/h Bft. km/h Grad Sektor
Sa, 24.07. 10:00 9 2 41 200° S
Sa, 24.07. 9:50 9 2 - 200° S
Sa, 24.07. 9:40 15 3 - 200° S
Sa, 24.07. 9:30 18 3 40 200° S
Sa, 24.07. 9:20 18 3 - 200° S
Sa, 24.07. 9:10 22 4 - 190° S
Sa, 24.07. 9:00 22 4 40 170° S
Sa, 24.07. 8:30 11 2 22 180° S
Sa, 24.07. 8:00 11 2 29 160° S
Sa, 24.07. 7:30 17 3 30 120° SO
Sa, 24.07. 7:00 7 2 26 260° W
Ortszeit Untergrenze Bedeckung Gattung
total tief tief mittel hoch
Sa, 24.07. 8:00 3600 m 8/8 8/8 - - -
Sa, 24.07. 2:00 9000 m 2/8 0/8 - - -
Fr, 23.07. 20:00 9000 m 7/8 0/8 - - -
Fr, 23.07. 14:00 1380 m 2/8 2/8 - - -
Fr, 23.07. 8:00 1470 m 3/8 3/8 - - -
Fr, 23.07. 2:00 - 0/8 0/8 - - -
Do, 22.07. 20:00 - 0/8 0/8 - - -
Do, 22.07. 14:00 1410 m 2/8 2/8 - - -
Ortszeit Bedeckungsgrad in Achtel und Wolkenuntergrenze
Sa, 24.07. 10:00 2(1170m) 4(1800m) 8(2700m)
Sa, 24.07. 9:50 2(1170m) 4(1800m) 8(2700m)
Sa, 24.07. 9:40 2(1140m) 8(2400m) 8(3000m)
Sa, 24.07. 9:30 1(1080m) 7(1500m) 8(2100m)
Sa, 24.07. 9:20 1(1080m) 7(1500m) 8(2100m)
Sa, 24.07. 9:10 7(1500m) 7(2100m)
Sa, 24.07. 9:00 6(1800m) 7(2400m) 7(3300m)
Sa, 24.07. 8:30 1(2100m) 8(3000m)
Sa, 24.07. 8:00 6(3600m) 8(4200m)
Sa, 24.07. 7:30 3(2700m) 6(3300m) 8(3900m)
Sa, 24.07. 7:00 1(2100m) 8(3300m)
Ortszeit Luftdruck NN (hPa) Tendenz (hPa in 3 Std.)
Sa, 24.07. 8:00 1009 - 0,4
Sa, 24.07. 2:00 1011 - 1,1
Fr, 23.07. 20:00 1012 - 1,3
Fr, 23.07. 14:00 1015 - 1,3
Fr, 23.07. 8:00 1018 - 0,4
Fr, 23.07. 2:00 1019 - 0,4
Do, 22.07. 20:00 1018 - 0,9
Do, 22.07. 14:00 1020 - 0,6
Ortszeit Luftdruck NN (hPa) Tendenz (hPa in 3 Std.)
Sa, 24.07. 10:00 1010 + 1,2
Sa, 24.07. 9:50 1010 keine Meldung
Sa, 24.07. 9:40 1010 keine Meldung
Sa, 24.07. 9:30 1010 + 0,5
Sa, 24.07. 9:20 1010 keine Meldung
Sa, 24.07. 9:10 1010 keine Meldung
Sa, 24.07. 9:00 1010 - 0,4
Sa, 24.07. 8:30 1009 - 0,5
Sa, 24.07. 8:00 1009 - 0,4
Sa, 24.07. 7:30 1008 - 0,1
Sa, 24.07. 7:00 1009 - 0,3
Ortszeit Schneehöhe (cm)
Sa, 24.07. 8:00 -
Sa, 24.07. 2:00 -
Fr, 23.07. 20:00 -
Fr, 23.07. 14:00 -
Fr, 23.07. 8:00 -
Fr, 23.07. 2:00 -
Do, 22.07. 20:00 -
Do, 22.07. 14:00 -
Ortszeit Schneehöhe (cm)
Sa, 24.07. 10:00 -
Sa, 24.07. 9:50 -
Sa, 24.07. 9:40 -
Sa, 24.07. 9:30 -
Sa, 24.07. 9:20 -
Sa, 24.07. 9:10 -
Sa, 24.07. 9:00 -
Sa, 24.07. 8:30 -
Sa, 24.07. 8:00 -
Sa, 24.07. 7:30 -
Sa, 24.07. 7:00 -
Link zu dieser Seite / Seite empfehlen

Das Wetter in ...